Main page
METAR-TAF:

METAR-TAF

Airports :

Bergerac Dordogne Périgord Airport

Bergerac, France

latitude: 44-49N, longitude: 000-31E, elevation: 51 m

Current weather observation

The report was made 27 minutes ago, at 23:30 UTC
Wind 3 kt from the Northeast
Temperature 6°C
Humidity 93%
Pressure 1017 hPa
Visibility: 8000 m

METAR: LFBE 242330Z AUTO 05003KT 8000 NSC 06/05 Q1017

Time: 00:57 (23:57 UTC)

Forecast

The report was made 6 hours and 57 minutes ago, at 17:00 UTC
Forecast valid from 24 at 18 UTC to 25 at 18 UTC
Wind 5 kt from the East
Visibility 10 km or more
no clouds below 1500 m and no cumulonimbus
Temporary
from 24 at 18 UTC to 24 at 22 UTC
Wind 10 kt from the South/Southeast
Probability 30%
from 25 at 03 UTC to 25 at 08 UTC
Visibility: 4000 m
mist

TAF: LFBE 241700Z 2418/2518 08005KT CAVOK TEMPO 2418/2422 16010KT PROB30 2503/2508 4000 BR

Weather observations and forecasts of more than 4000 airports (METAR and TAF reports).

The available stations are represented by yellow and red dots on the map.

Hover mouse over dot to see the name of the station.

Then click to see weather observations and forecasts.

To change the map : click on the green buttons with a black cross to zoom in, on the green button with a dash to zoom out, or on the green arrows for adjacent maps.


METAR-TAF: